Time;durP1;ratioP1;P1;durP2;ratioP2;P2;SDS_P1;SDS_P2;PMS_P1;PMS_P2;Temp;Humidity;BMP_temperature;BMP_pressure;BME280_temperature;BME280_humidity;BME280_pressure;Samples;Min_cycle;Max_cycle;Signal;HPM_P1;HPM_P2
2024/01/10 00:01:53;;;;;;;3.28;2.33;;;;;;;;;;5109694;27;20056;-60
2024/01/10 00:04:20;;;;;;;6.13;2.77;;;;;;;;;;5109568;27;20083;-60
2024/01/10 00:06:46;;;;;;;3.47;2.50;;;;;;;;;;5109889;27;20048;-58
2024/01/10 00:09:12;;;;;;;6.13;2.72;;;;;;;;;;5108543;28;20569;-59
2024/01/10 00:11:39;;;;;;;6.70;2.90;;;;;;;;;;5109655;27;20403;-60
2024/01/10 00:14:05;;;;;;;5.70;2.63;;;;;;;;;;5110364;27;20502;-58
2024/01/10 00:16:32;;;;;;;3.00;2.20;;;;;;;;;;5109606;27;20052;-59
2024/01/10 00:18:58;;;;;;;5.13;2.80;;;;;;;;;;5109206;27;20056;-59
2024/01/10 00:21:25;;;;;;;5.90;2.70;;;;;;;;;;5109365;27;20087;-60
2024/01/10 00:23:51;;;;;;;3.35;2.50;;;;;;;;;;5109696;27;20060;-61
2024/01/10 00:26:17;;;;;;;5.38;2.95;;;;;;;;;;5109638;27;20047;-60
2024/01/10 00:28:46;;;;;;;4.60;2.83;;;;;;;;;;5109410;27;20110;-59
2024/01/10 00:31:13;;;;;;;4.07;2.47;;;;;;;;;;5108922;27;20083;-60
2024/01/10 00:33:39;;;;;;;5.22;2.88;;;;;;;;;;5109662;27;20091;-60
2024/01/10 00:36:06;;;;;;;6.85;3.33;;;;;;;;;;5109810;27;20147;-59
2024/01/10 00:38:33;;;;;;;3.75;2.78;;;;;;;;;;5109572;27;20153;-59
2024/01/10 00:40:59;;;;;;;6.72;2.95;;;;;;;;;;5109333;27;20142;-61
2024/01/10 00:43:25;;;;;;;3.47;2.42;;;;;;;;;;5108940;27;20498;-59
2024/01/10 00:45:52;;;;;;;5.63;3.10;;;;;;;;;;5107662;27;20136;-60
2024/01/10 00:48:18;;;;;;;5.63;2.95;;;;;;;;;;5109284;27;20048;-60
2024/01/10 00:50:45;;;;;;;6.00;3.03;;;;;;;;;;5108728;27;20068;-61
2024/01/10 00:53:11;;;;;;;6.25;2.95;;;;;;;;;;5109286;27;20568;-60
2024/01/10 00:55:38;;;;;;;4.07;2.70;;;;;;;;;;5109642;27;20079;-60
2024/01/10 00:58:04;;;;;;;6.00;3.13;;;;;;;;;;5109226;27;20131;-60
2024/01/10 01:00:31;;;;;;;3.85;2.83;;;;;;;;;;5108667;27;20051;-61
2024/01/10 01:02:58;;;;;;;4.53;3.05;;;;;;;;;;5109266;27;20084;-61
2024/01/10 01:05:24;;;;;;;6.00;2.75;;;;;;;;;;5109160;27;20139;-60
2024/01/10 01:07:51;;;;;;;5.88;2.78;;;;;;;;;;5108970;27;20143;-59
2024/01/10 01:10:17;;;;;;;5.03;2.80;;;;;;;;;;5108743;27;20083;-58
2024/01/10 01:12:43;;;;;;;7.15;3.20;;;;;;;;;;5109010;27;20089;-60
2024/01/10 01:15:10;;;;;;;7.20;3.25;;;;;;;;;;5106810;27;20052;-59
2024/01/10 01:17:36;;;;;;;4.75;2.90;;;;;;;;;;5108242;27;20510;-58
2024/01/10 01:20:04;;;;;;;7.03;3.22;;;;;;;;;;5109228;27;20058;-60
2024/01/10 01:22:31;;;;;;;4.18;3.08;;;;;;;;;;5108883;27;20517;-60
2024/01/10 01:24:57;;;;;;;4.60;2.92;;;;;;;;;;5108911;27;20098;-60
2024/01/10 01:27:24;;;;;;;6.07;3.42;;;;;;;;;;5108743;27;20048;-60
2024/01/10 01:29:50;;;;;;;5.97;3.38;;;;;;;;;;5108405;27;20500;-58
2024/01/10 01:32:17;;;;;;;4.53;3.03;;;;;;;;;;5108357;27;20105;-61
2024/01/10 01:34:43;;;;;;;6.75;3.25;;;;;;;;;;5108485;27;20600;-60
2024/01/10 01:37:10;;;;;;;3.40;2.40;;;;;;;;;;5108519;27;20056;-59
2024/01/10 01:39:36;;;;;;;4.53;3.05;;;;;;;;;;5109269;27;20044;-61
2024/01/10 01:42:03;;;;;;;6.35;3.25;;;;;;;;;;5108456;27;20059;-60
2024/01/10 01:44:32;;;;;;;4.82;2.92;;;;;;;;;;5108024;27;20074;-61
2024/01/10 01:46:58;;;;;;;5.82;3.22;;;;;;;;;;5108434;27;20088;-59
2024/01/10 01:49:25;;;;;;;5.25;3.03;;;;;;;;;;5106412;28;20167;-59
2024/01/10 01:51:52;;;;;;;6.65;3.25;;;;;;;;;;5108402;27;20084;-60
2024/01/10 01:54:19;;;;;;;7.07;2.95;;;;;;;;;;5108398;27;20769;-61
2024/01/10 01:56:46;;;;;;;5.50;3.20;;;;;;;;;;5108736;27;20079;-61
2024/01/10 01:59:13;;;;;;;5.30;2.78;;;;;;;;;;5111447;27;20052;-60
2024/01/10 02:01:40;;;;;;;7.13;3.42;;;;;;;;;;5112310;27;20078;-60
2024/01/10 02:04:06;;;;;;;5.35;3.28;;;;;;;;;;5112277;27;20048;-60
2024/01/10 02:06:33;;;;;;;5.07;3.10;;;;;;;;;;5111873;27;20139;-61
2024/01/10 02:08:59;;;;;;;5.38;3.42;;;;;;;;;;5111773;27;20059;-60
2024/01/10 02:11:26;;;;;;;5.38;3.25;;;;;;;;;;5111335;27;20048;-60
2024/01/10 02:13:56;;;;;;;5.13;3.35;;;;;;;;;;5111242;27;20056;-60
2024/01/10 02:16:22;;;;;;;5.32;2.95;;;;;;;;;;5111797;27;20052;-60
2024/01/10 02:18:49;;;;;;;4.72;3.17;;;;;;;;;;5111616;27;20048;-60
2024/01/10 02:21:16;;;;;;;5.28;2.80;;;;;;;;;;5111321;27;20063;-59
2024/01/10 02:23:43;;;;;;;5.53;3.50;;;;;;;;;;5111771;27;20070;-61
2024/01/10 02:26:09;;;;;;;5.40;3.20;;;;;;;;;;5111935;27;20555;-59
2024/01/10 02:28:36;;;;;;;5.93;3.17;;;;;;;;;;5111226;27;20521;-58
2024/01/10 02:31:02;;;;;;;9.40;4.03;;;;;;;;;;5111371;27;20506;-59
2024/01/10 02:33:29;;;;;;;8.40;3.30;;;;;;;;;;5111373;27;20644;-61
2024/01/10 02:35:55;;;;;;;5.03;3.25;;;;;;;;;;5111764;27;20155;-61
2024/01/10 02:38:23;;;;;;;6.75;3.30;;;;;;;;;;5111301;27;20133;-60
2024/01/10 02:40:49;;;;;;;5.90;3.90;;;;;;;;;;5110766;27;20070;-60
2024/01/10 02:43:16;;;;;;;5.95;3.30;;;;;;;;;;5111685;27;20429;-60
2024/01/10 02:45:42;;;;;;;6.68;4.28;;;;;;;;;;5109791;28;20060;-59
2024/01/10 02:48:09;;;;;;;6.88;3.20;;;;;;;;;;5111534;27;20100;-60
2024/01/10 02:50:35;;;;;;;7.57;3.67;;;;;;;;;;5111042;27;20091;-61
2024/01/10 02:53:01;;;;;;;5.40;3.17;;;;;;;;;;5109965;28;20052;-61
2024/01/10 02:55:28;;;;;;;6.95;3.60;;;;;;;;;;5110676;27;20533;-59
2024/01/10 02:57:54;;;;;;;7.53;3.28;;;;;;;;;;5110828;27;20064;-61
2024/01/10 03:00:20;;;;;;;5.18;3.58;;;;;;;;;;5111065;27;20630;-60
2024/01/10 03:02:47;;;;;;;5.38;3.50;;;;;;;;;;5111019;27;20056;-60
2024/01/10 03:05:13;;;;;;;6.30;3.50;;;;;;;;;;5111318;27;20117;-61
2024/01/10 03:07:40;;;;;;;6.22;3.55;;;;;;;;;;5110568;27;20538;-60
2024/01/10 03:10:06;;;;;;;4.45;3.03;;;;;;;;;;5109589;27;20075;-59
2024/01/10 03:12:36;;;;;;;5.43;3.30;;;;;;;;;;5110733;27;20055;-60
2024/01/10 03:15:04;;;;;;;4.53;3.17;;;;;;;;;;5110893;27;20338;-61
2024/01/10 03:17:33;;;;;;;5.20;3.15;;;;;;;;;;5110910;27;20135;-58
2024/01/10 03:20:00;;;;;;;6.10;3.67;;;;;;;;;;5110386;27;20101;-60
2024/01/10 03:22:26;;;;;;;5.17;3.23;;;;;;;;;;5110706;27;20055;-59
2024/01/10 03:24:52;;;;;;;5.27;3.17;;;;;;;;;;5110202;27;20075;-60
2024/01/10 03:27:19;;;;;;;5.00;3.47;;;;;;;;;;5110922;27;20135;-60
2024/01/10 03:29:45;;;;;;;5.90;3.42;;;;;;;;;;5110500;27;20106;-60
2024/01/10 03:32:11;;;;;;;6.88;3.83;;;;;;;;;;5110734;27;20223;-57
2024/01/10 03:34:38;;;;;;;5.93;3.28;;;;;;;;;;5110291;27;20063;-60
2024/01/10 03:37:05;;;;;;;9.40;4.00;;;;;;;;;;5110738;27;20131;-61
2024/01/10 03:39:32;;;;;;;4.95;3.70;;;;;;;;;;5110146;28;20088;-59
2024/01/10 03:41:58;;;;;;;6.32;3.65;;;;;;;;;;5110605;27;20059;-60
2024/01/10 03:44:26;;;;;;;8.18;3.70;;;;;;;;;;5110371;27;20056;-60
2024/01/10 03:46:52;;;;;;;6.05;4.07;;;;;;;;;;5110320;27;20055;-59
2024/01/10 03:49:18;;;;;;;9.32;3.75;;;;;;;;;;5109926;27;20557;-59
2024/01/10 03:51:45;;;;;;;5.15;2.83;;;;;;;;;;5110069;27;20052;-60
2024/01/10 03:54:11;;;;;;;7.80;3.30;;;;;;;;;;5109834;27;20110;-58
2024/01/10 03:56:37;;;;;;;5.88;3.33;;;;;;;;;;5110501;27;20142;-60
2024/01/10 03:59:04;;;;;;;4.05;2.75;;;;;;;;;;5109778;27;20052;-59
2024/01/10 04:01:31;;;;;;;6.10;3.53;;;;;;;;;;5109811;27;20059;-60
2024/01/10 04:03:57;;;;;;;6.40;3.35;;;;;;;;;;5110079;27;20045;-59
2024/01/10 04:06:24;;;;;;;8.00;4.32;;;;;;;;;;5109837;27;20101;-60
2024/01/10 04:08:50;;;;;;;6.47;3.70;;;;;;;;;;5109537;27;20434;-61
2024/01/10 04:11:16;;;;;;;9.10;3.43;;;;;;;;;;5110364;27;20506;-60
2024/01/10 04:13:44;;;;;;;6.78;4.05;;;;;;;;;;5109755;27;20052;-60
2024/01/10 04:16:11;;;;;;;5.28;3.03;;;;;;;;;;5110058;27;20455;-60
2024/01/10 04:18:37;;;;;;;5.32;3.13;;;;;;;;;;5110142;27;20052;-61
2024/01/10 04:21:04;;;;;;;6.90;3.85;;;;;;;;;;5109455;27;20052;-60
2024/01/10 04:23:30;;;;;;;5.68;3.80;;;;;;;;;;5108664;27;20098;-59
2024/01/10 04:25:57;;;;;;;4.80;3.28;;;;;;;;;;5109641;27;20510;-59
2024/01/10 04:28:23;;;;;;;5.90;3.55;;;;;;;;;;5109864;27;20056;-60
2024/01/10 04:30:49;;;;;;;7.43;3.15;;;;;;;;;;5109186;27;20576;-60
2024/01/10 04:33:16;;;;;;;6.53;3.53;;;;;;;;;;5109747;27;20052;-59
2024/01/10 04:35:42;;;;;;;6.40;3.50;;;;;;;;;;5109575;27;20106;-59
2024/01/10 04:38:09;;;;;;;6.68;3.25;;;;;;;;;;5109176;28;20059;-59
2024/01/10 04:40:35;;;;;;;7.57;3.67;;;;;;;;;;5109491;27;20056;-60
2024/01/10 04:43:02;;;;;;;6.55;3.90;;;;;;;;;;5109324;27;20055;-61
2024/01/10 04:45:28;;;;;;;5.80;3.57;;;;;;;;;;5109356;27;20094;-60
2024/01/10 04:47:54;;;;;;;5.83;3.33;;;;;;;;;;5109048;27;20454;-59
2024/01/10 04:50:21;;;;;;;5.13;3.17;;;;;;;;;;5108656;27;20141;-60
2024/01/10 04:52:47;;;;;;;10.90;3.97;;;;;;;;;;5109378;27;20062;-59
2024/01/10 04:55:14;;;;;;;5.90;3.50;;;;;;;;;;5109239;28;20054;-59
2024/01/10 04:57:40;;;;;;;5.38;3.22;;;;;;;;;;5109405;27;20386;-60
2024/01/10 05:00:07;;;;;;;6.77;3.53;;;;;;;;;;5109200;27;20052;-60
2024/01/10 05:02:33;;;;;;;4.80;2.97;;;;;;;;;;5109106;27;20339;-61
2024/01/10 05:05:00;;;;;;;4.90;3.47;;;;;;;;;;5108942;27;20048;-60
2024/01/10 05:07:26;;;;;;;6.50;3.50;;;;;;;;;;5108584;27;20079;-59
2024/01/10 05:09:53;;;;;;;6.83;3.93;;;;;;;;;;5108926;27;20542;-60
2024/01/10 05:12:20;;;;;;;6.82;4.35;;;;;;;;;;5108472;27;20143;-59
2024/01/10 05:14:46;;;;;;;8.90;3.63;;;;;;;;;;5109128;27;20608;-60
2024/01/10 05:17:12;;;;;;;6.65;3.55;;;;;;;;;;5109291;27;20063;-60
2024/01/10 05:19:39;;;;;;;7.75;4.18;;;;;;;;;;5109179;27;20105;-60
2024/01/10 05:22:06;;;;;;;6.40;3.43;;;;;;;;;;5108420;27;20076;-60
2024/01/10 05:24:32;;;;;;;8.80;4.03;;;;;;;;;;5108845;27;20238;-60
2024/01/10 05:26:59;;;;;;;6.03;3.60;;;;;;;;;;5108826;27;20063;-61
2024/01/10 05:29:25;;;;;;;11.57;3.60;;;;;;;;;;5108429;27;20618;-62
2024/01/10 05:31:52;;;;;;;6.97;3.93;;;;;;;;;;5109766;27;20055;-61
2024/01/10 05:34:18;;;;;;;7.23;3.97;;;;;;;;;;5112444;27;20059;-61
2024/01/10 05:36:45;;;;;;;6.65;4.00;;;;;;;;;;5111946;27;20048;-61
2024/01/10 05:39:15;;;;;;;5.90;3.63;;;;;;;;;;5112774;27;20143;-61
2024/01/10 05:41:43;;;;;;;7.57;4.28;;;;;;;;;;5112404;27;20105;-61
2024/01/10 05:44:12;;;;;;;8.50;4.45;;;;;;;;;;5112614;27;20084;-60
2024/01/10 05:46:38;;;;;;;7.45;3.60;;;;;;;;;;5112256;27;20056;-59
2024/01/10 05:49:05;;;;;;;5.00;3.50;;;;;;;;;;5111796;27;20080;-59
2024/01/10 05:51:32;;;;;;;7.65;4.28;;;;;;;;;;5111672;27;20465;-60
2024/01/10 05:53:58;;;;;;;6.13;4.47;;;;;;;;;;5112136;27;20151;-59
2024/01/10 05:56:27;;;;;;;6.55;4.30;;;;;;;;;;5111671;27;20057;-59
2024/01/10 05:58:53;;;;;;;7.30;4.03;;;;;;;;;;5112451;27;20106;-61
2024/01/10 06:01:20;;;;;;;5.35;3.72;;;;;;;;;;5111750;27;20083;-60
2024/01/10 06:03:46;;;;;;;7.80;4.53;;;;;;;;;;5111835;27;20062;-58
2024/01/10 06:06:13;;;;;;;8.23;4.05;;;;;;;;;;5112075;27;20076;-60
2024/01/10 06:08:39;;;;;;;10.82;5.28;;;;;;;;;;5112064;27;20048;-60
2024/01/10 06:11:08;;;;;;;5.83;3.87;;;;;;;;;;5111751;27;21013;-60
2024/01/10 06:13:36;;;;;;;5.38;3.72;;;;;;;;;;5111654;27;20508;-60
2024/01/10 06:16:16;;;;;;;7.53;4.35;;;;;;;;;;5111637;27;20048;-59
2024/01/10 06:18:43;;;;;;;7.18;4.47;;;;;;;;;;5111611;27;20056;-59
2024/01/10 06:21:10;;;;;;;10.68;4.63;;;;;;;;;;5111948;27;20084;-61
2024/01/10 06:23:37;;;;;;;5.68;4.20;;;;;;;;;;5111627;27;20105;-61
2024/01/10 06:26:03;;;;;;;7.45;4.32;;;;;;;;;;5111235;27;20143;-60
2024/01/10 06:28:30;;;;;;;10.43;4.75;;;;;;;;;;5111576;27;20561;-61
2024/01/10 06:30:56;;;;;;;7.10;3.75;;;;;;;;;;5110369;27;20560;-61
2024/01/10 06:33:23;;;;;;;5.43;4.25;;;;;;;;;;5111106;27;20506;-61
2024/01/10 06:35:49;;;;;;;9.85;4.38;;;;;;;;;;5111149;27;20135;-61
2024/01/10 06:38:16;;;;;;;9.52;4.57;;;;;;;;;;5111447;27;20110;-60
2024/01/10 06:40:44;;;;;;;8.90;4.50;;;;;;;;;;5112321;27;20052;-60
2024/01/10 06:43:11;;;;;;;6.10;3.87;;;;;;;;;;5111925;27;20147;-59
2024/01/10 06:45:37;;;;;;;6.80;4.33;;;;;;;;;;5111293;27;20171;-60
2024/01/10 06:48:04;;;;;;;6.53;3.87;;;;;;;;;;5110697;28;20411;-59
2024/01/10 06:50:30;;;;;;;6.87;4.37;;;;;;;;;;5110269;27;20118;-61
2024/01/10 06:52:57;;;;;;;10.20;4.50;;;;;;;;;;5111117;27;20062;-59
2024/01/10 06:55:24;;;;;;;6.95;4.95;;;;;;;;;;5110909;27;20048;-59
2024/01/10 06:57:52;;;;;;;6.43;4.40;;;;;;;;;;5111052;27;20056;-59
2024/01/10 07:00:20;;;;;;;7.72;4.78;;;;;;;;;;5111015;27;20052;-60
2024/01/10 07:02:48;;;;;;;9.57;4.77;;;;;;;;;;5110792;27;20044;-59
2024/01/10 07:05:15;;;;;;;7.63;4.43;;;;;;;;;;5111164;27;20084;-59
2024/01/10 07:07:41;;;;;;;8.50;4.90;;;;;;;;;;5111096;27;20059;-59
2024/01/10 07:10:08;;;;;;;10.10;5.07;;;;;;;;;;5110841;27;20048;-61
2024/01/10 07:12:34;;;;;;;7.22;4.78;;;;;;;;;;5110764;27;20508;-61
2024/01/10 07:15:03;;;;;;;8.98;4.97;;;;;;;;;;5110506;27;20052;-61
2024/01/10 07:17:29;;;;;;;8.17;4.50;;;;;;;;;;5110062;27;20056;-60
2024/01/10 07:19:56;;;;;;;8.60;4.87;;;;;;;;;;5110630;27;20063;-59
2024/01/10 07:22:23;;;;;;;4.77;3.50;;;;;;;;;;5110715;27;20048;-61
2024/01/10 07:24:49;;;;;;;7.57;4.75;;;;;;;;;;5110957;27;20052;-57
2024/01/10 07:27:15;;;;;;;7.90;4.17;;;;;;;;;;5110711;27;20569;-60
2024/01/10 07:29:42;;;;;;;12.57;4.63;;;;;;;;;;5111051;27;20086;-58
2024/01/10 07:32:11;;;;;;;9.07;4.90;;;;;;;;;;5109945;27;20098;-60
2024/01/10 07:34:38;;;;;;;9.80;6.28;;;;;;;;;;5110582;27;20517;-60
2024/01/10 07:37:04;;;;;;;6.93;4.72;;;;;;;;;;5110289;27;20059;-60
2024/01/10 07:39:30;;;;;;;7.47;4.23;;;;;;;;;;5109969;27;20079;-59
2024/01/10 07:41:57;;;;;;;7.63;4.43;;;;;;;;;;5110599;27;20048;-59
2024/01/10 07:44:24;;;;;;;8.30;4.70;;;;;;;;;;5110218;27;20060;-59
2024/01/10 07:46:54;;;;;;;9.83;5.07;;;;;;;;;;5109911;27;20143;-60
2024/01/10 07:49:21;;;;;;;6.60;4.60;;;;;;;;;;5110130;27;20052;-59
2024/01/10 07:51:48;;;;;;;6.93;4.20;;;;;;;;;;5110198;27;20051;-59
2024/01/10 07:54:14;;;;;;;9.03;5.17;;;;;;;;;;5109931;27;20056;-62
2024/01/10 07:56:41;;;;;;;6.77;4.10;;;;;;;;;;5110012;27;20131;-63
2024/01/10 07:59:07;;;;;;;8.60;4.80;;;;;;;;;;5109969;27;20083;-60
2024/01/10 08:01:34;;;;;;;5.17;3.63;;;;;;;;;;5109620;27;20055;-60
2024/01/10 08:04:00;;;;;;;7.33;4.20;;;;;;;;;;5109665;28;20529;-61
2024/01/10 08:06:27;;;;;;;7.83;4.47;;;;;;;;;;5110176;27;20131;-60
2024/01/10 08:08:58;;;;;;;5.93;3.80;;;;;;;;;;5110580;27;20049;-61
2024/01/10 08:11:25;;;;;;;8.57;4.33;;;;;;;;;;5108638;28;20105;-62
2024/01/10 08:13:51;;;;;;;7.33;5.00;;;;;;;;;;5109552;27;20138;-61
2024/01/10 08:16:18;;;;;;;8.30;5.00;;;;;;;;;;5109680;27;20151;-61
2024/01/10 08:18:45;;;;;;;8.27;4.80;;;;;;;;;;5109911;27;20052;-61
2024/01/10 08:21:12;;;;;;;6.37;4.80;;;;;;;;;;5109987;27;20052;-61
2024/01/10 08:23:38;;;;;;;7.60;5.00;;;;;;;;;;5109659;27;20055;-61
2024/01/10 08:26:08;;;;;;;9.93;5.90;;;;;;;;;;5109837;27;20099;-61
2024/01/10 08:28:34;;;;;;;7.63;4.50;;;;;;;;;;5109315;27;20074;-61
2024/01/10 08:31:00;;;;;;;11.27;6.43;;;;;;;;;;5109505;27;20478;-59
2024/01/10 08:33:30;;;;;;;10.48;5.68;;;;;;;;;;5109503;27;20092;-61
2024/01/10 08:35:58;;;;;;;10.60;5.87;;;;;;;;;;5109514;27;20056;-61
2024/01/10 08:38:25;;;;;;;10.80;5.95;;;;;;;;;;5108267;28;20055;-60
2024/01/10 08:40:51;;;;;;;8.30;5.20;;;;;;;;;;5109358;27;20430;-61
2024/01/10 08:43:18;;;;;;;10.13;5.60;;;;;;;;;;5109048;27;20532;-60
2024/01/10 08:45:44;;;;;;;8.87;5.73;;;;;;;;;;5109743;27;20052;-62
2024/01/10 08:48:13;;;;;;;10.27;5.87;;;;;;;;;;5109135;27;20090;-62
2024/01/10 08:50:39;;;;;;;8.83;5.10;;;;;;;;;;5109092;27;20056;-62
2024/01/10 08:53:06;;;;;;;8.83;5.73;;;;;;;;;;5108733;27;20048;-62
2024/01/10 08:55:33;;;;;;;9.13;5.50;;;;;;;;;;5109199;27;20142;-62
2024/01/10 08:58:00;;;;;;;8.98;6.20;;;;;;;;;;5108675;27;20048;-62
2024/01/10 09:00:27;;;;;;;9.90;5.75;;;;;;;;;;5109231;27;20510;-62
2024/01/10 09:02:54;;;;;;;8.87;4.93;;;;;;;;;;5109292;27;20052;-63
2024/01/10 09:05:21;;;;;;;11.50;5.55;;;;;;;;;;5108945;27;20135;-60
2024/01/10 09:07:48;;;;;;;8.80;5.60;;;;;;;;;;5108188;27;20052;-61
2024/01/10 09:10:14;;;;;;;11.17;5.87;;;;;;;;;;5109141;27;20052;-62
2024/01/10 09:12:45;;;;;;;12.53;5.00;;;;;;;;;;5108893;27;20075;-61
2024/01/10 09:15:13;;;;;;;9.10;4.97;;;;;;;;;;5109124;27;20147;-62
2024/01/10 09:17:44;;;;;;;8.55;4.50;;;;;;;;;;5108505;27;20537;-62
2024/01/10 09:20:11;;;;;;;10.43;4.80;;;;;;;;;;5108850;27;20105;-62
2024/01/10 09:22:38;;;;;;;9.68;5.40;;;;;;;;;;5108737;27;20052;-62
2024/01/10 09:25:05;;;;;;;9.93;5.00;;;;;;;;;;5108942;28;20086;-62
2024/01/10 09:27:33;;;;;;;10.33;4.40;;;;;;;;;;5107186;27;20546;-61
2024/01/10 09:30:01;;;;;;;7.97;4.68;;;;;;;;;;5108711;28;20060;-61
2024/01/10 09:32:31;;;;;;;8.30;5.22;;;;;;;;;;5108821;27;20052;-59
2024/01/10 09:34:58;;;;;;;8.97;4.83;;;;;;;;;;5109227;27;20048;-60
2024/01/10 09:37:24;;;;;;;8.17;4.10;;;;;;;;;;5108699;27;20059;-61
2024/01/10 09:39:52;;;;;;;8.53;4.27;;;;;;;;;;5108431;27;20048;-60
2024/01/10 09:42:20;;;;;;;6.33;4.13;;;;;;;;;;5108230;27;20139;-60
2024/01/10 09:44:47;;;;;;;9.17;4.63;;;;;;;;;;5109106;27;20536;-62
2024/01/10 09:47:14;;;;;;;10.37;4.73;;;;;;;;;;5108639;27;20059;-61
2024/01/10 09:49:41;;;;;;;9.13;5.30;;;;;;;;;;5108256;27;20059;-61
2024/01/10 09:52:10;;;;;;;8.13;4.77;;;;;;;;;;5108474;27;20502;-61
2024/01/10 09:54:38;;;;;;;6.23;3.73;;;;;;;;;;5108564;27;20053;-61
2024/01/10 09:57:05;;;;;;;7.23;3.93;;;;;;;;;;5108405;27;20559;-60
2024/01/10 09:59:32;;;;;;;8.07;4.37;;;;;;;;;;5108587;27;20052;-61
2024/01/10 10:01:58;;;;;;;6.07;3.83;;;;;;;;;;5108502;28;20486;-61
2024/01/10 10:04:27;;;;;;;8.30;4.50;;;;;;;;;;5108236;27;20056;-59
2024/01/10 10:07:01;;;;;;;7.60;4.30;;;;;;;;;;5106817;28;20134;-61
2024/01/10 10:09:28;;;;;;;10.00;4.73;;;;;;;;;;5108275;27;20056;-59
2024/01/10 10:11:54;;;;;;;8.63;4.75;;;;;;;;;;5107878;27;20575;-61
2024/01/10 10:14:22;;;;;;;9.38;4.97;;;;;;;;;;5107936;27;20606;-61
2024/01/10 10:16:48;;;;;;;9.98;5.20;;;;;;;;;;5108286;27;20131;-61
2024/01/10 10:19:22;;;;;;;11.88;4.85;;;;;;;;;;5111526;27;20070;-60
2024/01/10 10:21:49;;;;;;;6.85;4.00;;;;;;;;;;5112060;27;20430;-61
2024/01/10 10:24:16;;;;;;;7.82;4.18;;;;;;;;;;5111873;27;20512;-60
2024/01/10 10:26:46;;;;;;;8.98;4.82;;;;;;;;;;5111421;27;20052;-60
2024/01/10 10:29:16;;;;;;;10.38;4.75;;;;;;;;;;5111561;27;20134;-62
2024/01/10 10:31:46;;;;;;;7.07;4.10;;;;;;;;;;5111486;27;20129;-61
2024/01/10 10:34:13;;;;;;;10.05;4.57;;;;;;;;;;5111509;27;20080;-61
2024/01/10 10:36:42;;;;;;;11.43;4.85;;;;;;;;;;5110205;27;20060;-62
2024/01/10 10:39:13;;;;;;;6.97;4.43;;;;;;;;;;5111495;27;20078;-60
2024/01/10 10:41:40;;;;;;;9.27;4.90;;;;;;;;;;5111020;27;20510;-61
2024/01/10 10:44:09;;;;;;;8.10;4.80;;;;;;;;;;5111508;27;20139;-61
2024/01/10 10:46:37;;;;;;;10.10;5.47;;;;;;;;;;5111177;27;20056;-61
2024/01/10 10:49:11;;;;;;;8.25;4.97;;;;;;;;;;5110841;27;20494;-62
2024/01/10 10:51:38;;;;;;;9.75;4.85;;;;;;;;;;5111498;27;20067;-60
2024/01/10 10:54:04;;;;;;;7.70;4.65;;;;;;;;;;5110664;27;20048;-62
2024/01/10 10:56:32;;;;;;;8.25;4.75;;;;;;;;;;5110807;27;20890;-59
2024/01/10 10:59:00;;;;;;;9.43;4.80;;;;;;;;;;5111255;27;20566;-61
2024/01/10 11:01:27;;;;;;;9.15;4.90;;;;;;;;;;5111396;28;20510;-61
2024/01/10 11:03:54;;;;;;;8.25;5.05;;;;;;;;;;5111078;27;20048;-61
2024/01/10 11:06:21;;;;;;;6.97;4.28;;;;;;;;;;5111068;27;20053;-61
2024/01/10 11:09:04;;;;;;;9.73;4.68;;;;;;;;;;5110701;27;20442;-60
2024/01/10 11:11:43;;;;;;;7.22;4.35;;;;;;;;;;5110809;27;20080;-61
2024/01/10 11:14:28;;;;;;;11.10;5.28;;;;;;;;;;5110866;27;20083;-60
2024/01/10 11:16:55;;;;;;;9.07;4.72;;;;;;;;;;5110769;27;20052;-60
2024/01/10 11:19:52;;;;;;;8.98;4.93;;;;;;;;;;5110708;27;20059;-61
2024/01/10 11:22:22;;;;;;;10.68;4.90;;;;;;;;;;5110883;27;20052;-61
2024/01/10 11:24:49;;;;;;;10.38;5.13;;;;;;;;;;5110937;27;20549;-61
2024/01/10 11:27:16;;;;;;;7.60;4.00;;;;;;;;;;5110444;28;20060;-61
2024/01/10 11:29:45;;;;;;;8.68;5.07;;;;;;;;;;5109753;27;20054;-61
2024/01/10 11:32:15;;;;;;;9.55;4.93;;;;;;;;;;5110300;27;20052;-61
2024/01/10 11:34:53;;;;;;;8.55;4.50;;;;;;;;;;5110231;27;20524;-62
2024/01/10 11:37:19;;;;;;;8.40;4.88;;;;;;;;;;5110246;27;20063;-61
2024/01/10 11:39:46;;;;;;;8.98;4.32;;;;;;;;;;5110325;27;20048;-60
2024/01/10 11:42:21;;;;;;;8.43;5.20;;;;;;;;;;5110230;27;20381;-62
2024/01/10 11:44:51;;;;;;;7.72;4.50;;;;;;;;;;5110675;27;20105;-61
2024/01/10 11:47:19;;;;;;;8.05;3.88;;;;;;;;;;5110623;27;20527;-62
2024/01/10 11:49:58;;;;;;;9.75;5.20;;;;;;;;;;5108873;28;20490;-62
2024/01/10 11:52:32;;;;;;;8.88;4.70;;;;;;;;;;5109863;27;20102;-61
2024/01/10 11:54:58;;;;;;;8.30;4.45;;;;;;;;;;5110218;27;20076;-62
2024/01/10 11:57:26;;;;;;;7.88;4.93;;;;;;;;;;5110032;27;20105;-61
2024/01/10 11:59:56;;;;;;;7.80;4.43;;;;;;;;;;5110139;27;20055;-61
2024/01/10 12:02:26;;;;;;;9.15;4.50;;;;;;;;;;5110462;27;20063;-61
2024/01/10 12:04:53;;;;;;;10.32;5.10;;;;;;;;;;5110267;27;20052;-58
2024/01/10 12:07:21;;;;;;;8.55;5.18;;;;;;;;;;5109786;27;20056;-61
2024/01/10 12:09:47;;;;;;;8.82;5.07;;;;;;;;;;5110387;27;20044;-60
2024/01/10 12:12:14;;;;;;;9.30;5.60;;;;;;;;;;5109708;27;20048;-61
2024/01/10 12:14:43;;;;;;;9.88;5.32;;;;;;;;;;5109768;27;20135;-60
2024/01/10 12:17:09;;;;;;;10.85;5.10;;;;;;;;;;5109803;27;20055;-61
2024/01/10 12:19:37;;;;;;;12.80;5.28;;;;;;;;;;5109448;27;20051;-60
2024/01/10 12:22:05;;;;;;;7.72;4.75;;;;;;;;;;5109349;27;20044;-61
2024/01/10 12:24:33;;;;;;;9.05;5.50;;;;;;;;;;5109886;27;20055;-61
2024/01/10 12:27:00;;;;;;;9.38;4.75;;;;;;;;;;5109694;27;20132;-61
2024/01/10 12:29:26;;;;;;;11.07;5.25;;;;;;;;;;5109487;27;20048;-61
2024/01/10 12:31:53;;;;;;;11.00;4.93;;;;;;;;;;5110344;27;20048;-62
2024/01/10 12:34:21;;;;;;;10.15;4.97;;;;;;;;;;5109547;27;20048;-61
2024/01/10 12:36:48;;;;;;;9.82;4.90;;;;;;;;;;5108874;27;20058;-61
2024/01/10 12:39:14;;;;;;;11.40;5.65;;;;;;;;;;5109535;27;20048;-61
2024/01/10 12:41:41;;;;;;;8.80;5.70;;;;;;;;;;5109242;27;20530;-61
2024/01/10 12:44:07;;;;;;;11.02;5.57;;;;;;;;;;5109459;27;20067;-61
2024/01/10 12:46:35;;;;;;;10.02;5.38;;;;;;;;;;5109541;27;20059;-61
2024/01/10 12:49:06;;;;;;;9.55;5.32;;;;;;;;;;5108828;28;20055;-61
2024/01/10 12:51:36;;;;;;;9.60;5.35;;;;;;;;;;5109023;27;20510;-59
2024/01/10 12:54:05;;;;;;;11.60;5.22;;;;;;;;;;5109581;27;20082;-60
2024/01/10 12:56:32;;;;;;;11.65;5.50;;;;;;;;;;5109374;27;20056;-60
2024/01/10 12:58:58;;;;;;;7.50;4.80;;;;;;;;;;5109218;27;20082;-60
2024/01/10 13:01:25;;;;;;;8.18;4.90;;;;;;;;;;5108541;27;20147;-60
2024/01/10 13:03:52;;;;;;;9.60;5.50;;;;;;;;;;5109311;27;20062;-61
2024/01/10 13:06:22;;;;;;;10.02;5.22;;;;;;;;;;5108672;27;20505;-61
2024/01/10 13:08:48;;;;;;;12.85;5.72;;;;;;;;;;5109199;27;20618;-60
2024/01/10 13:11:15;;;;;;;10.52;5.50;;;;;;;;;;5109159;28;20056;-61
2024/01/10 13:13:43;;;;;;;11.23;4.90;;;;;;;;;;5109166;27;20516;-61
2024/01/10 13:16:10;;;;;;;10.50;4.63;;;;;;;;;;5108968;27;20566;-61
2024/01/10 13:18:37;;;;;;;8.18;5.40;;;;;;;;;;5109104;27;20055;-61
2024/01/10 13:21:04;;;;;;;7.80;4.93;;;;;;;;;;5108525;27;20470;-60
2024/01/10 13:23:30;;;;;;;7.97;4.80;;;;;;;;;;5108903;27;20535;-60
2024/01/10 13:25:57;;;;;;;7.30;4.38;;;;;;;;;;5108650;27;20066;-62
2024/01/10 13:28:23;;;;;;;14.25;5.57;;;;;;;;;;5109059;27;20438;-61
2024/01/10 13:30:50;;;;;;;8.82;5.28;;;;;;;;;;5108734;27;20101;-61
2024/01/10 13:33:18;;;;;;;8.18;4.75;;;;;;;;;;5108410;27;20048;-61
2024/01/10 13:35:45;;;;;;;10.35;5.20;;;;;;;;;;5109123;27;20171;-61
2024/01/10 13:38:11;;;;;;;7.95;4.70;;;;;;;;;;5108882;27;20056;-61
2024/01/10 13:40:38;;;;;;;12.18;4.78;;;;;;;;;;5108731;27;20048;-59
2024/01/10 13:43:05;;;;;;;9.43;4.95;;;;;;;;;;5108493;27;20446;-59
2024/01/10 13:45:31;;;;;;;8.10;4.70;;;;;;;;;;5108620;27;20051;-61
2024/01/10 13:47:58;;;;;;;8.82;5.43;;;;;;;;;;5106928;28;20052;-62
2024/01/10 13:50:25;;;;;;;8.50;4.63;;;;;;;;;;5107988;27;20114;-60
2024/01/10 13:52:53;;;;;;;9.48;5.35;;;;;;;;;;5109861;27;20064;-61
2024/01/10 13:55:20;;;;;;;8.55;4.45;;;;;;;;;;5112273;27;20399;-61
2024/01/10 13:57:47;;;;;;;6.13;4.38;;;;;;;;;;5112403;27;20060;-59
2024/01/10 14:00:16;;;;;;;11.38;5.07;;;;;;;;;;5110802;28;20097;-61
2024/01/10 14:02:42;;;;;;;6.57;4.43;;;;;;;;;;5111748;27;20052;-61
2024/01/10 14:05:09;;;;;;;6.50;4.65;;;;;;;;;;5112050;27;20147;-58
2024/01/10 14:07:37;;;;;;;9.57;4.45;;;;;;;;;;5111866;27;20464;-59
2024/01/10 14:10:04;;;;;;;11.15;5.50;;;;;;;;;;5111727;27;20059;-60
2024/01/10 14:12:32;;;;;;;10.20;5.35;;;;;;;;;;5111910;27;20052;-61
2024/01/10 14:14:59;;;;;;;9.65;5.18;;;;;;;;;;5111625;27;20131;-59
2024/01/10 14:17:28;;;;;;;8.18;5.10;;;;;;;;;;5111281;27;20098;-61
2024/01/10 14:19:54;;;;;;;9.30;5.00;;;;;;;;;;5112501;27;20063;-61
2024/01/10 14:22:23;;;;;;;9.32;4.95;;;;;;;;;;5111594;27;20058;-61
2024/01/10 14:24:57;;;;;;;9.93;4.50;;;;;;;;;;5111862;27;20517;-61
2024/01/10 14:27:27;;;;;;;11.65;4.88;;;;;;;;;;5111657;27;20052;-59
2024/01/10 14:29:54;;;;;;;7.68;4.50;;;;;;;;;;5111991;27;20571;-61
2024/01/10 14:32:21;;;;;;;9.90;4.68;;;;;;;;;;5111087;27;20150;-60
2024/01/10 14:34:48;;;;;;;8.57;5.30;;;;;;;;;;5111524;27;20563;-62
2024/01/10 14:37:14;;;;;;;7.00;4.47;;;;;;;;;;5111271;27;20101;-61
2024/01/10 14:39:41;;;;;;;9.07;5.63;;;;;;;;;;5111041;27;20152;-60
2024/01/10 14:42:08;;;;;;;8.25;4.47;;;;;;;;;;5111966;27;20333;-60